Time;durP1;ratioP1;P1;durP2;ratioP2;P2;SDS_P1;SDS_P2;PMS_P1;PMS_P2;Temp;Humidity;BMP_temperature;BMP_pressure;BME280_temperature;BME280_humidity;BME280_pressure;Samples;Min_cycle;Max_cycle;Signal;HPM_P1;HPM_P2
2023/10/23 00:01:00;;;;;;;4.93;3.42;;;;;;;;;;5097068;28;20024;-73
2023/10/23 00:03:26;;;;;;;12.15;4.25;;;;;;;;;;5095726;28;20417;-72
2023/10/23 00:05:52;;;;;;;9.68;3.97;;;;;;;;;;5095413;28;20034;-72
2023/10/23 00:08:18;;;;;;;6.78;3.95;;;;;;;;;;5099749;28;20076;-73
2023/10/23 00:10:44;;;;;;;6.18;3.72;;;;;;;;;;5104079;28;20020;-72
2023/10/23 00:13:12;;;;;;;7.10;4.03;;;;;;;;;;5105235;28;20051;-72
2023/10/23 00:15:38;;;;;;;7.68;4.05;;;;;;;;;;5103752;28;20046;-72
2023/10/23 00:18:04;;;;;;;7.90;3.95;;;;;;;;;;5096636;28;20391;-73
2023/10/23 00:20:30;;;;;;;12.13;4.03;;;;;;;;;;5095614;28;20040;-73
2023/10/23 00:22:56;;;;;;;9.52;4.32;;;;;;;;;;5095685;28;20024;-73
2023/10/23 00:25:22;;;;;;;8.23;4.35;;;;;;;;;;5095614;28;20070;-73
2023/10/23 00:27:48;;;;;;;7.72;4.65;;;;;;;;;;5096122;28;20024;-73
2023/10/23 00:30:14;;;;;;;10.38;4.40;;;;;;;;;;5096883;28;20024;-73
2023/10/23 00:32:40;;;;;;;11.27;4.88;;;;;;;;;;5097185;28;20449;-73
2023/10/23 00:35:06;;;;;;;10.38;4.60;;;;;;;;;;5095898;28;20028;-73
2023/10/23 00:37:32;;;;;;;9.98;4.75;;;;;;;;;;5095384;28;20024;-73
2023/10/23 00:39:58;;;;;;;10.68;5.28;;;;;;;;;;5095272;28;20035;-73
2023/10/23 00:42:24;;;;;;;11.13;4.70;;;;;;;;;;5095508;28;20028;-73
2023/10/23 00:44:50;;;;;;;10.77;4.97;;;;;;;;;;5095369;28;20032;-72
2023/10/23 00:47:21;;;;;;;11.30;4.85;;;;;;;;;;5094287;28;20154;-72
2023/10/23 00:49:47;;;;;;;11.15;4.97;;;;;;;;;;5095392;28;20417;-73
2023/10/23 00:52:13;;;;;;;15.48;5.32;;;;;;;;;;5095228;28;20016;-73
2023/10/23 00:54:39;;;;;;;8.52;5.25;;;;;;;;;;5095171;28;20117;-73
2023/10/23 00:57:05;;;;;;;11.57;6.60;;;;;;;;;;5095092;28;20024;-72
2023/10/23 00:59:32;;;;;;;10.05;5.55;;;;;;;;;;5095110;28;20437;-73
2023/10/23 01:01:58;;;;;;;11.65;5.65;;;;;;;;;;5093528;28;20024;-72
2023/10/23 01:04:24;;;;;;;12.75;5.60;;;;;;;;;;5095470;28;20095;-73
2023/10/23 01:06:50;;;;;;;12.38;6.47;;;;;;;;;;5094974;28;20028;-72
2023/10/23 01:09:19;;;;;;;14.63;6.05;;;;;;;;;;5095031;28;20023;-74
2023/10/23 01:11:45;;;;;;;14.77;6.63;;;;;;;;;;5093176;28;20017;-74
2023/10/23 01:14:11;;;;;;;10.32;5.88;;;;;;;;;;5094836;28;20103;-73
2023/10/23 01:16:37;;;;;;;11.27;6.63;;;;;;;;;;5096178;28;20491;-73
2023/10/23 01:19:04;;;;;;;14.02;5.90;;;;;;;;;;5097104;28;20112;-73
2023/10/23 01:21:30;;;;;;;11.95;6.03;;;;;;;;;;5097104;28;20031;-73
2023/10/23 01:23:58;;;;;;;13.68;6.15;;;;;;;;;;5097267;28;20028;-73
2023/10/23 01:26:24;;;;;;;12.45;6.40;;;;;;;;;;5096025;28;20046;-73
2023/10/23 01:28:50;;;;;;;10.68;5.93;;;;;;;;;;5093829;28;20032;-74
2023/10/23 01:31:16;;;;;;;24.98;7.05;;;;;;;;;;5094413;28;20028;-73
2023/10/23 01:33:42;;;;;;;12.55;6.78;;;;;;;;;;5094491;28;20298;-73
2023/10/23 01:36:08;;;;;;;16.95;7.10;;;;;;;;;;5094418;28;20097;-73
2023/10/23 01:38:36;;;;;;;17.35;7.18;;;;;;;;;;5105625;28;20479;-73
2023/10/23 01:41:02;;;;;;;15.20;6.95;;;;;;;;;;5097332;28;20032;-72
2023/10/23 01:43:28;;;;;;;12.93;7.25;;;;;;;;;;5093936;28;20105;-73
2023/10/23 01:45:54;;;;;;;19.65;7.75;;;;;;;;;;5092036;28;20031;-73
2023/10/23 01:48:21;;;;;;;16.60;7.32;;;;;;;;;;5093979;28;20028;-73
2023/10/23 01:50:47;;;;;;;12.82;7.68;;;;;;;;;;5096291;28;20076;-73
2023/10/23 01:53:15;;;;;;;21.00;8.13;;;;;;;;;;5096900;28;20031;-73
2023/10/23 01:55:41;;;;;;;14.68;7.85;;;;;;;;;;5097567;28;20515;-73
2023/10/23 01:58:07;;;;;;;19.77;7.63;;;;;;;;;;5093120;28;20550;-73
2023/10/23 02:00:33;;;;;;;14.85;8.07;;;;;;;;;;5100507;28;20069;-73
2023/10/23 02:02:59;;;;;;;12.05;8.00;;;;;;;;;;5095963;28;20023;-74
2023/10/23 02:05:25;;;;;;;17.42;7.60;;;;;;;;;;5092548;28;20563;-74
2023/10/23 02:07:51;;;;;;;15.93;8.50;;;;;;;;;;5093857;28;20048;-75
2023/10/23 02:10:17;;;;;;;13.38;8.07;;;;;;;;;;5093545;28;20022;-74
2023/10/23 02:12:43;;;;;;;15.32;7.38;;;;;;;;;;5094683;28;20016;-73
2023/10/23 02:15:10;;;;;;;15.48;8.20;;;;;;;;;;5094565;28;20035;-73
2023/10/23 02:17:36;;;;;;;16.90;7.82;;;;;;;;;;5097586;28;20031;-74
2023/10/23 02:20:05;;;;;;;14.88;8.27;;;;;;;;;;5093511;28;20024;-76
2023/10/23 02:22:31;;;;;;;13.07;7.40;;;;;;;;;;5094084;28;20149;-73
2023/10/23 02:24:57;;;;;;;14.05;7.63;;;;;;;;;;5093910;28;20530;-72
2023/10/23 02:27:23;;;;;;;20.13;8.82;;;;;;;;;;5095003;28;20095;-74
2023/10/23 02:29:49;;;;;;;21.30;8.02;;;;;;;;;;5096932;28;20419;-73
2023/10/23 02:32:15;;;;;;;18.25;9.45;;;;;;;;;;5093281;28;20499;-74
2023/10/23 02:34:43;;;;;;;18.38;9.10;;;;;;;;;;5093331;28;20032;-75
2023/10/23 02:37:09;;;;;;;17.17;9.00;;;;;;;;;;5093097;28;20023;-74
2023/10/23 02:39:35;;;;;;;16.02;9.43;;;;;;;;;;5093215;28;20418;-74
2023/10/23 02:42:01;;;;;;;17.38;8.43;;;;;;;;;;5093065;28;20102;-73
2023/10/23 02:44:27;;;;;;;19.02;9.18;;;;;;;;;;5092877;28;20071;-74
2023/10/23 02:46:53;;;;;;;14.23;8.82;;;;;;;;;;5092824;28;20046;-74
2023/10/23 02:49:19;;;;;;;15.15;9.00;;;;;;;;;;5092930;28;20032;-74
2023/10/23 02:51:46;;;;;;;18.20;10.18;;;;;;;;;;5092557;28;20020;-74
2023/10/23 02:54:12;;;;;;;14.38;9.40;;;;;;;;;;5092764;28;20044;-73
2023/10/23 02:56:38;;;;;;;32.63;15.63;;;;;;;;;;5092612;28;20024;-73
2023/10/23 02:59:04;;;;;;;22.75;11.70;;;;;;;;;;5092676;28;20058;-74
2023/10/23 03:01:30;;;;;;;36.75;17.85;;;;;;;;;;5092358;28;20110;-74
2023/10/23 03:03:57;;;;;;;17.42;10.95;;;;;;;;;;5096159;28;20028;-73
2023/10/23 03:06:23;;;;;;;17.42;10.00;;;;;;;;;;5097726;28;20035;-73
2023/10/23 03:08:49;;;;;;;16.90;9.63;;;;;;;;;;5100951;28;20064;-73
2023/10/23 03:11:15;;;;;;;16.17;10.60;;;;;;;;;;5100136;28;20016;-72
2023/10/23 03:13:41;;;;;;;15.38;10.15;;;;;;;;;;5108093;28;20032;-72
2023/10/23 03:16:07;;;;;;;21.10;10.00;;;;;;;;;;5104347;28;20060;-73
2023/10/23 03:18:33;;;;;;;18.38;11.40;;;;;;;;;;5093160;28;20024;-74
2023/10/23 03:21:02;;;;;;;19.90;11.60;;;;;;;;;;5092221;28;20060;-74
2023/10/23 03:23:29;;;;;;;17.20;11.10;;;;;;;;;;5092136;28;20119;-73
2023/10/23 03:25:56;;;;;;;17.80;10.60;;;;;;;;;;5092110;28;20539;-73
2023/10/23 03:28:22;;;;;;;17.05;10.30;;;;;;;;;;5092147;28;20024;-74
2023/10/23 03:30:48;;;;;;;17.52;11.27;;;;;;;;;;5091919;28;20028;-74
2023/10/23 03:33:15;;;;;;;21.38;11.10;;;;;;;;;;5092427;28;20031;-74
2023/10/23 03:35:44;;;;;;;20.77;11.32;;;;;;;;;;5092775;28;20038;-73
2023/10/23 03:38:10;;;;;;;17.83;10.27;;;;;;;;;;5092196;28;20077;-74
2023/10/23 03:40:36;;;;;;;24.13;12.18;;;;;;;;;;5093271;28;20394;-73
2023/10/23 03:43:02;;;;;;;20.30;12.32;;;;;;;;;;5105385;28;20051;-72
2023/10/23 03:45:28;;;;;;;19.60;11.38;;;;;;;;;;5118038;28;20031;-72
2023/10/23 03:47:54;;;;;;;20.23;12.00;;;;;;;;;;5116789;28;20016;-73
2023/10/23 03:50:20;;;;;;;19.95;10.93;;;;;;;;;;5093120;28;20031;-71
2023/10/23 03:52:46;;;;;;;27.40;11.65;;;;;;;;;;5091568;28;20032;-72
2023/10/23 03:55:12;;;;;;;20.45;12.55;;;;;;;;;;5092024;28;20024;-74
2023/10/23 03:57:38;;;;;;;22.88;12.23;;;;;;;;;;5091874;28;20540;-73
2023/10/23 04:00:05;;;;;;;21.38;11.75;;;;;;;;;;5091660;28;20036;-72
2023/10/23 04:02:31;;;;;;;15.25;11.25;;;;;;;;;;5091940;28;20051;-72
2023/10/23 04:04:57;;;;;;;22.13;12.50;;;;;;;;;;5091643;28;20056;-73
2023/10/23 04:07:23;;;;;;;20.60;12.70;;;;;;;;;;5091716;28;20020;-73
2023/10/23 04:09:49;;;;;;;22.27;12.48;;;;;;;;;;5093118;28;20491;-74
2023/10/23 04:12:15;;;;;;;24.25;12.70;;;;;;;;;;5097573;28;20047;-73
2023/10/23 04:14:45;;;;;;;20.08;12.07;;;;;;;;;;5094538;28;20024;-72
2023/10/23 04:17:11;;;;;;;19.70;12.48;;;;;;;;;;5093957;28;20044;-73
2023/10/23 04:19:38;;;;;;;25.48;15.30;;;;;;;;;;5090451;28;20024;-74
2023/10/23 04:22:04;;;;;;;23.63;12.85;;;;;;;;;;5092459;28;20073;-74
2023/10/23 04:24:30;;;;;;;22.52;13.35;;;;;;;;;;5095365;28;20550;-73
2023/10/23 04:26:56;;;;;;;23.58;12.57;;;;;;;;;;5095377;28;20020;-72
2023/10/23 04:29:22;;;;;;;22.83;13.77;;;;;;;;;;5094925;28;20498;-73
2023/10/23 04:31:48;;;;;;;18.65;12.80;;;;;;;;;;5096574;28;20028;-74
2023/10/23 04:34:14;;;;;;;20.30;12.88;;;;;;;;;;5095189;28;20024;-73
2023/10/23 04:36:40;;;;;;;20.98;12.98;;;;;;;;;;5091354;28;20028;-73
2023/10/23 04:39:06;;;;;;;27.83;14.57;;;;;;;;;;5091342;28;20024;-73
2023/10/23 04:41:32;;;;;;;25.90;14.77;;;;;;;;;;5091314;28;20032;-72
2023/10/23 04:43:58;;;;;;;25.83;14.18;;;;;;;;;;5091205;28;20071;-74
2023/10/23 04:46:24;;;;;;;25.63;14.85;;;;;;;;;;5091177;28;20032;-73
2023/10/23 04:48:50;;;;;;;20.58;13.18;;;;;;;;;;5091368;28;20028;-72
2023/10/23 04:51:16;;;;;;;21.83;13.48;;;;;;;;;;5090842;28;20104;-72
2023/10/23 04:53:42;;;;;;;25.80;14.02;;;;;;;;;;5091196;28;20020;-73
2023/10/23 04:56:08;;;;;;;25.88;14.23;;;;;;;;;;5091205;28;20169;-74
2023/10/23 04:58:34;;;;;;;24.10;13.88;;;;;;;;;;5091114;28;20032;-72
2023/10/23 05:01:00;;;;;;;28.42;15.90;;;;;;;;;;5090704;28;20035;-74
2023/10/23 05:03:26;;;;;;;23.70;14.88;;;;;;;;;;5089879;28;20040;-75
2023/10/23 05:05:52;;;;;;;22.13;14.32;;;;;;;;;;5094139;28;20497;-74
2023/10/23 05:08:18;;;;;;;19.52;14.02;;;;;;;;;;5094528;28;20102;-73
2023/10/23 05:10:44;;;;;;;24.88;14.82;;;;;;;;;;5094471;28;20424;-74
2023/10/23 05:13:10;;;;;;;24.92;16.75;;;;;;;;;;5094336;28;20055;-73
2023/10/23 05:15:36;;;;;;;32.95;16.85;;;;;;;;;;5095175;28;20132;-73
2023/10/23 05:18:03;;;;;;;28.05;16.20;;;;;;;;;;5097686;28;20024;-73
2023/10/23 05:20:29;;;;;;;27.95;15.68;;;;;;;;;;5094311;28;20490;-77
2023/10/23 05:22:55;;;;;;;28.08;15.95;;;;;;;;;;5093005;28;20110;-73
2023/10/23 05:25:21;;;;;;;31.83;17.02;;;;;;;;;;5094528;28;20035;-73
2023/10/23 05:27:47;;;;;;;23.83;15.30;;;;;;;;;;5095598;28;20035;-72
2023/10/23 05:30:13;;;;;;;32.40;15.90;;;;;;;;;;5092737;28;20042;-73
2023/10/23 05:32:39;;;;;;;34.17;16.63;;;;;;;;;;5094448;28;20024;-72
2023/10/23 05:35:06;;;;;;;25.10;15.63;;;;;;;;;;5094608;28;20028;-73
2023/10/23 05:37:35;;;;;;;23.83;15.45;;;;;;;;;;5094615;28;20451;-73
2023/10/23 05:40:04;;;;;;;30.95;16.52;;;;;;;;;;5093734;28;20039;-73
2023/10/23 05:42:31;;;;;;;29.80;15.95;;;;;;;;;;5093986;28;20031;-72
2023/10/23 05:44:56;;;;;;;26.15;16.08;;;;;;;;;;5094029;28;20109;-72
2023/10/23 05:47:24;;;;;;;36.65;19.75;;;;;;;;;;5094005;28;20024;-73
2023/10/23 05:49:50;;;;;;;27.50;17.33;;;;;;;;;;5093756;28;20052;-73
2023/10/23 05:52:16;;;;;;;24.70;15.23;;;;;;;;;;5094019;28;20020;-73
2023/10/23 05:54:42;;;;;;;24.75;14.90;;;;;;;;;;5096932;28;20063;-73
2023/10/23 05:57:28;;;;;;;25.13;15.57;;;;;;;;;;5100847;28;20076;-73
2023/10/23 05:59:54;;;;;;;36.00;16.67;;;;;;;;;;5105961;28;20509;-75
2023/10/23 06:02:20;;;;;;;28.20;16.65;;;;;;;;;;5092610;28;20069;-74
2023/10/23 06:04:46;;;;;;;24.02;15.00;;;;;;;;;;5093499;28;20020;-72
2023/10/23 06:07:12;;;;;;;26.90;16.30;;;;;;;;;;5093793;28;20027;-73
2023/10/23 06:09:39;;;;;;;27.58;17.08;;;;;;;;;;5093892;28;20464;-74
2023/10/23 06:12:06;;;;;;;22.77;14.40;;;;;;;;;;5097751;28;20012;-73
2023/10/23 06:14:32;;;;;;;25.02;15.23;;;;;;;;;;5078807;28;20041;-73
2023/10/23 06:16:59;;;;;;;27.92;16.08;;;;;;;;;;5100081;28;20038;-73
2023/10/23 06:19:25;;;;;;;29.00;16.85;;;;;;;;;;5101011;28;20107;-73
2023/10/23 06:21:51;;;;;;;23.67;15.77;;;;;;;;;;5096803;28;20063;-75
2023/10/23 06:24:17;;;;;;;26.20;16.25;;;;;;;;;;5093378;28;20031;-74
2023/10/23 06:26:43;;;;;;;27.88;16.08;;;;;;;;;;5093360;28;20028;-74
2023/10/23 06:29:09;;;;;;;31.75;18.27;;;;;;;;;;5093682;28;20489;-75
2023/10/23 06:31:35;;;;;;;29.88;17.77;;;;;;;;;;5092942;28;20020;-74
2023/10/23 06:34:01;;;;;;;25.25;14.88;;;;;;;;;;5093141;28;20016;-75
2023/10/23 06:36:27;;;;;;;29.67;16.13;;;;;;;;;;5093655;28;20028;-73
2023/10/23 06:38:53;;;;;;;29.50;16.00;;;;;;;;;;5093191;28;20540;-73
2023/10/23 06:41:19;;;;;;;25.85;15.50;;;;;;;;;;5094120;28;20031;-75
2023/10/23 06:43:45;;;;;;;25.92;16.85;;;;;;;;;;5093521;28;20114;-73
2023/10/23 06:46:11;;;;;;;33.42;17.35;;;;;;;;;;5095384;28;20049;-74
2023/10/23 06:48:44;;;;;;;44.97;21.58;;;;;;;;;;5095480;28;20421;-74
2023/10/23 06:51:10;;;;;;;40.22;21.52;;;;;;;;;;5095732;28;20026;-73
2023/10/23 06:53:36;;;;;;;45.78;22.35;;;;;;;;;;5097505;28;20028;-73
2023/10/23 06:56:02;;;;;;;32.22;20.50;;;;;;;;;;5096902;28;20467;-74
2023/10/23 06:58:28;;;;;;;45.45;20.05;;;;;;;;;;5092881;28;20612;-74
2023/10/23 07:00:54;;;;;;;45.08;21.55;;;;;;;;;;5092233;28;20463;-75
2023/10/23 07:03:20;;;;;;;32.00;19.10;;;;;;;;;;5092698;28;20046;-75
2023/10/23 07:05:46;;;;;;;29.50;18.60;;;;;;;;;;5092344;28;20459;-75
2023/10/23 07:08:13;;;;;;;30.38;18.45;;;;;;;;;;5095898;28;20043;-73
2023/10/23 07:10:39;;;;;;;33.50;18.80;;;;;;;;;;5099099;28;20020;-72
2023/10/23 07:13:06;;;;;;;36.20;19.35;;;;;;;;;;5093463;28;20024;-74
2023/10/23 07:15:35;;;;;;;26.38;16.50;;;;;;;;;;5092501;28;20081;-73
2023/10/23 07:18:03;;;;;;;28.80;17.65;;;;;;;;;;5097584;28;20098;-74
2023/10/23 07:20:29;;;;;;;28.02;15.85;;;;;;;;;;5096074;28;20027;-74
2023/10/23 07:22:55;;;;;;;30.42;17.08;;;;;;;;;;5092014;28;20386;-76
2023/10/23 07:25:21;;;;;;;27.60;14.95;;;;;;;;;;5095476;28;20035;-73
2023/10/23 07:27:48;;;;;;;31.10;16.55;;;;;;;;;;5091509;28;20544;-75
2023/10/23 07:30:14;;;;;;;25.33;15.27;;;;;;;;;;5091952;28;20454;-74
2023/10/23 07:32:40;;;;;;;27.48;17.17;;;;;;;;;;5092091;28;20031;-74
2023/10/23 07:35:08;;;;;;;31.35;16.13;;;;;;;;;;5092112;28;20020;-72
2023/10/23 07:37:34;;;;;;;27.10;15.02;;;;;;;;;;5091970;28;20030;-72
2023/10/23 07:40:04;;;;;;;25.63;15.68;;;;;;;;;;5092032;28;20035;-73
2023/10/23 07:42:31;;;;;;;27.75;16.67;;;;;;;;;;5092208;28;20024;-73
2023/10/23 07:44:57;;;;;;;25.52;15.60;;;;;;;;;;5091965;28;20027;-73
2023/10/23 07:47:23;;;;;;;26.98;14.73;;;;;;;;;;5091964;28;20020;-75
2023/10/23 07:49:50;;;;;;;26.35;14.52;;;;;;;;;;5096933;28;20047;-73
2023/10/23 07:52:16;;;;;;;24.45;14.98;;;;;;;;;;5098850;28;20024;-73
2023/10/23 07:54:42;;;;;;;25.23;13.32;;;;;;;;;;5095843;28;20058;-74
2023/10/23 07:57:08;;;;;;;26.05;14.60;;;;;;;;;;5093559;28;20061;-73
2023/10/23 07:59:34;;;;;;;24.48;13.05;;;;;;;;;;5091855;28;20440;-75
2023/10/23 08:02:00;;;;;;;18.85;12.68;;;;;;;;;;5091668;28;20020;-75
2023/10/23 08:04:26;;;;;;;20.85;12.15;;;;;;;;;;5092912;28;20070;-73
2023/10/23 08:06:52;;;;;;;16.27;10.23;;;;;;;;;;5091716;28;20028;-73
2023/10/23 08:09:18;;;;;;;18.00;11.63;;;;;;;;;;5093637;28;20435;-75
2023/10/23 08:11:45;;;;;;;21.42;10.55;;;;;;;;;;5091847;28;20024;-75
2023/10/23 08:14:11;;;;;;;17.83;10.15;;;;;;;;;;5095082;28;20099;-73
2023/10/23 08:16:37;;;;;;;15.95;10.45;;;;;;;;;;5093378;28;20403;-74
2023/10/23 08:19:03;;;;;;;16.27;8.30;;;;;;;;;;5091269;28;20020;-72
2023/10/23 08:21:29;;;;;;;54.72;24.23;;;;;;;;;;5091770;28;20099;-73
2023/10/23 08:23:58;;;;;;;45.00;21.25;;;;;;;;;;5094947;28;20032;-74
2023/10/23 08:26:41;;;;;;;18.00;10.80;;;;;;;;;;5099721;28;20519;-73
2023/10/23 08:29:07;;;;;;;41.65;20.58;;;;;;;;;;5092114;28;20059;-73
2023/10/23 08:31:33;;;;;;;15.15;8.98;;;;;;;;;;5091019;28;20021;-74
2023/10/23 08:33:59;;;;;;;13.82;7.88;;;;;;;;;;5097618;28;20020;-74
2023/10/23 08:36:25;;;;;;;14.75;7.88;;;;;;;;;;5099059;28;20395;-73
2023/10/23 08:38:51;;;;;;;14.95;7.57;;;;;;;;;;5100691;28;20024;-75
2023/10/23 08:41:17;;;;;;;13.93;7.05;;;;;;;;;;5104947;28;20024;-73
2023/10/23 08:43:43;;;;;;;14.45;7.53;;;;;;;;;;5099203;28;20038;-76
2023/10/23 08:46:09;;;;;;;9.20;6.03;;;;;;;;;;5097371;28;20024;-74
2023/10/23 08:48:37;;;;;;;10.50;6.43;;;;;;;;;;5096789;28;20386;-72
2023/10/23 08:51:04;;;;;;;10.07;5.95;;;;;;;;;;5100891;28;20035;-75
2023/10/23 08:53:33;;;;;;;7.55;4.90;;;;;;;;;;5108415;28;20053;-74
2023/10/23 08:56:05;;;;;;;9.75;4.68;;;;;;;;;;5106767;28;20035;-73
2023/10/23 08:58:33;;;;;;;11.10;5.30;;;;;;;;;;5114134;28;20089;-74
2023/10/23 09:00:59;;;;;;;8.35;4.55;;;;;;;;;;5117844;28;20052;-75
2023/10/23 09:03:26;;;;;;;6.20;4.25;;;;;;;;;;5112571;28;20028;-73
2023/10/23 09:05:52;;;;;;;7.35;3.92;;;;;;;;;;5098838;28;20106;-74
2023/10/23 09:08:18;;;;;;;8.23;4.15;;;;;;;;;;5115624;28;20182;-74
2023/10/23 09:11:01;;;;;;;7.43;3.78;;;;;;;;;;5106508;28;20028;-75
2023/10/23 09:13:33;;;;;;;9.55;3.50;;;;;;;;;;5102690;28;20063;-75
2023/10/23 09:15:59;;;;;;;9.55;3.35;;;;;;;;;;5095554;28;20024;-74
2023/10/23 09:18:25;;;;;;;6.60;3.30;;;;;;;;;;5094517;28;20536;-74
2023/10/23 09:20:51;;;;;;;5.68;3.35;;;;;;;;;;5095521;28;20042;-77
2023/10/23 09:23:17;;;;;;;9.35;3.72;;;;;;;;;;5096829;28;20383;-73
2023/10/23 09:25:43;;;;;;;10.68;3.20;;;;;;;;;;5095971;28;20024;-74
2023/10/23 09:28:12;;;;;;;9.68;3.40;;;;;;;;;;5098055;28;20020;-74
2023/10/23 09:30:38;;;;;;;5.90;3.08;;;;;;;;;;5095720;28;20020;-73
2023/10/23 09:33:06;;;;;;;7.28;3.17;;;;;;;;;;5094164;28;20548;-73
2023/10/23 09:35:33;;;;;;;8.48;5.20;;;;;;;;;;5094548;28;20032;-73
2023/10/23 09:37:59;;;;;;;4.82;2.80;;;;;;;;;;5094259;28;20032;-73
2023/10/23 09:40:27;;;;;;;12.73;3.40;;;;;;;;;;5093912;28;20050;-74
2023/10/23 09:42:55;;;;;;;8.73;3.40;;;;;;;;;;5094251;28;20016;-75
2023/10/23 09:45:23;;;;;;;7.95;2.85;;;;;;;;;;5094094;28;20028;-73
2023/10/23 09:47:49;;;;;;;5.60;3.13;;;;;;;;;;5095921;28;20016;-74
2023/10/23 09:50:15;;;;;;;9.15;3.05;;;;;;;;;;5094153;28;20119;-74
2023/10/23 09:52:42;;;;;;;8.77;3.08;;;;;;;;;;5093617;28;20112;-75
2023/10/23 09:55:09;;;;;;;7.30;2.95;;;;;;;;;;5093728;28;20028;-73
2023/10/23 09:57:36;;;;;;;9.10;3.13;;;;;;;;;;5094595;28;20028;-74
2023/10/23 10:00:13;;;;;;;7.38;2.38;;;;;;;;;;5093974;28;20024;-75
2023/10/23 10:02:49;;;;;;;7.28;2.53;;;;;;;;;;5093943;28;20059;-73
2023/10/23 10:05:18;;;;;;;5.95;2.65;;;;;;;;;;5104625;28;20107;-75
2023/10/23 10:07:47;;;;;;;8.80;2.85;;;;;;;;;;5099593;28;20055;-74
2023/10/23 10:10:14;;;;;;;6.15;2.80;;;;;;;;;;5093331;28;20085;-74
2023/10/23 10:12:40;;;;;;;11.60;2.70;;;;;;;;;;5093662;28;20426;-77
2023/10/23 10:15:09;;;;;;;9.30;2.40;;;;;;;;;;5094231;28;20028;-75
2023/10/23 10:17:36;;;;;;;6.53;2.65;;;;;;;;;;5095432;28;20016;-74
2023/10/23 10:20:02;;;;;;;8.20;2.40;;;;;;;;;;5094243;28;20024;-75
2023/10/23 10:22:34;;;;;;;6.53;2.17;;;;;;;;;;5095763;28;20020;-75
2023/10/23 10:25:00;;;;;;;6.45;2.33;;;;;;;;;;5092940;28;20040;-74
2023/10/23 10:27:26;;;;;;;16.63;2.20;;;;;;;;;;5093172;28;20040;-75
2023/10/23 10:29:52;;;;;;;6.75;2.92;;;;;;;;;;5093056;28;20024;-75
2023/10/23 10:32:20;;;;;;;7.45;3.08;;;;;;;;;;5093208;28;20031;-74
2023/10/23 10:34:46;;;;;;;7.47;2.28;;;;;;;;;;5096684;28;20027;-73
2023/10/23 10:37:12;;;;;;;5.05;2.22;;;;;;;;;;5101127;28;20024;-74
2023/10/23 10:40:05;;;;;;;10.63;3.38;;;;;;;;;;5082888;28;20024;-76
2023/10/23 10:42:31;;;;;;;7.35;2.30;;;;;;;;;;5097203;28;20067;-74
2023/10/23 10:45:00;;;;;;;9.55;2.67;;;;;;;;;;5097699;28;20032;-74
2023/10/23 10:47:39;;;;;;;5.10;2.40;;;;;;;;;;5097744;28;20393;-73
2023/10/23 10:50:06;;;;;;;6.63;2.25;;;;;;;;;;5094372;28;20023;-76
2023/10/23 10:52:36;;;;;;;10.15;2.22;;;;;;;;;;5092374;28;20081;-74
2023/10/23 10:55:05;;;;;;;7.82;2.63;;;;;;;;;;5092191;28;20020;-73
2023/10/23 10:57:31;;;;;;;5.55;2.13;;;;;;;;;;5093687;28;20103;-75
2023/10/23 11:00:00;;;;;;;6.68;2.38;;;;;;;;;;5092686;28;20016;-74
2023/10/23 11:02:27;;;;;;;4.60;1.80;;;;;;;;;;5091514;28;20536;-76
2023/10/23 11:04:53;;;;;;;5.80;1.80;;;;;;;;;;5092501;28;20020;-73
2023/10/23 11:07:22;;;;;;;7.05;1.83;;;;;;;;;;5094746;28;20467;-73
2023/10/23 11:09:49;;;;;;;5.45;2.28;;;;;;;;;;5092029;28;20025;-73
2023/10/23 11:12:17;;;;;;;7.50;1.90;;;;;;;;;;5092257;28;20035;-74
2023/10/23 11:14:43;;;;;;;4.95;1.63;;;;;;;;;;5092129;28;20024;-74
2023/10/23 11:17:09;;;;;;;7.93;2.25;;;;;;;;;;5100064;28;20085;-78
2023/10/23 11:19:35;;;;;;;3.88;1.50;;;;;;;;;;5092177;28;20016;-74
2023/10/23 11:22:14;;;;;;;6.57;1.80;;;;;;;;;;5091874;28;20049;-74
2023/10/23 11:24:40;;;;;;;5.07;2.55;;;;;;;;;;5094773;28;20474;-73
2023/10/23 11:27:09;;;;;;;3.63;1.80;;;;;;;;;;5096331;28;20043;-74
2023/10/23 11:29:39;;;;;;;5.05;2.20;;;;;;;;;;5096704;28;20028;-73
2023/10/23 11:32:06;;;;;;;4.95;1.80;;;;;;;;;;5096544;28;20054;-74
2023/10/23 11:34:32;;;;;;;6.75;1.95;;;;;;;;;;5094907;28;20026;-73
2023/10/23 11:37:00;;;;;;;4.78;1.85;;;;;;;;;;5091479;28;20028;-73
2023/10/23 11:39:28;;;;;;;8.73;2.03;;;;;;;;;;5091867;28;20035;-73
2023/10/23 11:41:56;;;;;;;7.97;1.98;;;;;;;;;;5092181;28;20038;-77
2023/10/23 11:44:22;;;;;;;11.43;3.08;;;;;;;;;;5094151;28;20028;-73
2023/10/23 11:46:48;;;;;;;14.50;2.25;;;;;;;;;;5094374;28;20028;-75
2023/10/23 11:49:18;;;;;;;4.40;2.00;;;;;;;;;;5094913;28;20030;-73
2023/10/23 11:51:44;;;;;;;5.40;1.92;;;;;;;;;;5095837;28;20092;-74
2023/10/23 11:54:11;;;;;;;4.72;1.60;;;;;;;;;;5091736;28;20063;-73
2023/10/23 11:56:37;;;;;;;8.18;2.20;;;;;;;;;;5091536;28;20059;-73
2023/10/23 11:59:06;;;;;;;7.03;2.13;;;;;;;;;;5091800;28;20421;-75
2023/10/23 12:01:32;;;;;;;4.93;2.15;;;;;;;;;;5091827;28;20067;-75
2023/10/23 12:03:58;;;;;;;5.78;1.92;;;;;;;;;;5091751;28;20054;-74
2023/10/23 12:06:24;;;;;;;8.25;2.22;;;;;;;;;;5092927;28;20028;-76
2023/10/23 12:08:50;;;;;;;6.07;1.95;;;;;;;;;;5094939;28;20418;-73
2023/10/23 12:11:16;;;;;;;4.38;1.92;;;;;;;;;;5092441;28;20406;-76
2023/10/23 12:13:42;;;;;;;4.35;1.73;;;;;;;;;;5093647;28;20024;-74
2023/10/23 12:16:09;;;;;;;6.60;1.58;;;;;;;;;;5096293;28;20031;-74
2023/10/23 12:18:36;;;;;;;4.70;1.90;;;;;;;;;;5096237;28;20020;-74
2023/10/23 12:21:05;;;;;;;5.65;2.10;;;;;;;;;;5095880;28;20056;-75
2023/10/23 12:23:30;;;;;;;5.03;1.40;;;;;;;;;;5096889;28;20098;-75
2023/10/23 12:25:57;;;;;;;5.75;1.83;;;;;;;;;;5096180;28;20024;-75
2023/10/23 12:28:23;;;;;;;12.25;1.95;;;;;;;;;;5096568;28;20028;-74
2023/10/23 12:30:49;;;;;;;5.90;1.98;;;;;;;;;;5101327;28;20024;-74
2023/10/23 12:33:15;;;;;;;6.75;1.88;;;;;;;;;;5113270;28;20031;-73
2023/10/23 12:35:41;;;;;;;6.38;2.15;;;;;;;;;;5114890;28;20087;-74
2023/10/23 12:38:07;;;;;;;5.78;2.20;;;;;;;;;;5105762;28;20023;-74
2023/10/23 12:40:33;;;;;;;7.72;2.35;;;;;;;;;;5106106;28;20036;-75
2023/10/23 12:42:59;;;;;;;7.82;2.28;;;;;;;;;;5097051;28;20125;-74
2023/10/23 12:45:26;;;;;;;8.23;3.63;;;;;;;;;;5101728;28;20050;-74
2023/10/23 12:47:51;;;;;;;7.75;2.50;;;;;;;;;;5102327;28;20024;-73
2023/10/23 12:50:17;;;;;;;8.13;3.05;;;;;;;;;;5103267;28;20103;-75
2023/10/23 12:52:43;;;;;;;9.98;4.05;;;;;;;;;;5097154;28;20031;-74
2023/10/23 12:55:09;;;;;;;9.80;3.70;;;;;;;;;;5095833;28;20039;-75
2023/10/23 12:57:35;;;;;;;7.90;2.83;;;;;;;;;;5099632;28;20066;-74
2023/10/23 13:00:01;;;;;;;7.80;2.75;;;;;;;;;;5102192;28;20059;-75
2023/10/23 13:02:27;;;;;;;6.35;2.65;;;;;;;;;;5101887;28;20496;-75
2023/10/23 13:04:53;;;;;;;10.88;2.63;;;;;;;;;;5102455;28;20024;-74
2023/10/23 13:07:19;;;;;;;5.30;2.38;;;;;;;;;;5095322;28;20024;-73
2023/10/23 13:09:45;;;;;;;5.10;2.08;;;;;;;;;;5096260;28;20016;-74
2023/10/23 13:12:11;;;;;;;7.30;2.00;;;;;;;;;;5096500;28;20028;-74
2023/10/23 13:14:38;;;;;;;6.72;3.25;;;;;;;;;;5095001;28;20020;-75
2023/10/23 13:17:04;;;;;;;8.05;2.38;;;;;;;;;;5093418;28;20586;-74
2023/10/23 13:19:30;;;;;;;5.97;2.42;;;;;;;;;;5094990;28;20047;-74
2023/10/23 13:21:56;;;;;;;5.45;2.05;;;;;;;;;;5094579;28;20471;-75
2023/10/23 13:24:22;;;;;;;6.63;2.38;;;;;;;;;;5095166;28;20024;-73
2023/10/23 13:26:48;;;;;;;6.78;2.15;;;;;;;;;;5101510;28;20050;-74
2023/10/23 13:29:14;;;;;;;5.28;2.20;;;;;;;;;;5106376;28;20032;-74
2023/10/23 13:31:40;;;;;;;4.57;2.40;;;;;;;;;;5107098;28;20055;-74
2023/10/23 13:34:06;;;;;;;8.32;2.65;;;;;;;;;;5100498;28;20028;-73
2023/10/23 13:36:32;;;;;;;8.13;2.47;;;;;;;;;;5094385;28;20028;-75
2023/10/23 13:39:03;;;;;;;6.63;2.20;;;;;;;;;;5094396;28;20544;-75
2023/10/23 13:41:29;;;;;;;5.45;2.58;;;;;;;;;;5095557;28;20112;-75
2023/10/23 13:43:55;;;;;;;7.72;2.95;;;;;;;;;;5097119;28;20024;-74
2023/10/23 13:46:21;;;;;;;6.20;2.42;;;;;;;;;;5099047;28;20058;-75
2023/10/23 13:48:47;;;;;;;7.18;2.38;;;;;;;;;;5095539;28;20094;-73
2023/10/23 13:51:13;;;;;;;4.28;2.30;;;;;;;;;;5094092;28;20020;-73
2023/10/23 13:53:39;;;;;;;5.45;2.20;;;;;;;;;;5093802;28;20027;-73
2023/10/23 13:56:08;;;;;;;5.40;2.60;;;;;;;;;;5102161;28;20437;-74
2023/10/23 13:58:34;;;;;;;6.35;2.08;;;;;;;;;;5096412;28;20399;-74
2023/10/23 14:01:00;;;;;;;9.02;2.80;;;;;;;;;;5094134;28;20024;-75
2023/10/23 14:03:26;;;;;;;5.40;2.28;;;;;;;;;;5094419;28;20028;-74
2023/10/23 14:05:52;;;;;;;11.70;3.80;;;;;;;;;;5094370;28;20035;-74
2023/10/23 14:08:18;;;;;;;9.23;4.68;;;;;;;;;;5097024;28;20024;-75
2023/10/23 14:10:44;;;;;;;12.48;6.30;;;;;;;;;;5102239;28;20093;-75
2023/10/23 14:13:10;;;;;;;9.13;2.75;;;;;;;;;;5103587;28;20028;-73
2023/10/23 14:15:36;;;;;;;9.10;2.78;;;;;;;;;;5105810;28;20035;-75
2023/10/23 14:18:02;;;;;;;8.68;2.67;;;;;;;;;;5102519;28;20399;-74
2023/10/23 14:20:28;;;;;;;5.93;2.22;;;;;;;;;;5100806;28;20039;-73
2023/10/23 14:22:54;;;;;;;7.55;2.35;;;;;;;;;;5098125;28;20042;-74
2023/10/23 14:25:20;;;;;;;8.85;2.50;;;;;;;;;;5093608;28;20032;-74
2023/10/23 14:27:46;;;;;;;8.75;2.55;;;;;;;;;;5093386;28;20028;-74